sensor_id;sensor_type;location;lat;lon;timestamp;P1;durP1;ratioP1;P2;durP2;ratioP2
22480;SDS011;11407;56.964;-2.212;2023-06-24T00:00:31;2.30;;;2.00;;
22480;SDS011;11407;56.964;-2.212;2023-06-24T00:02:56;2.23;;;2.03;;
22480;SDS011;11407;56.964;-2.212;2023-06-24T00:05:23;3.20;;;2.43;;
22480;SDS011;11407;56.964;-2.212;2023-06-24T00:07:48;2.37;;;2.00;;
22480;SDS011;11407;56.964;-2.212;2023-06-24T00:10:14;4.23;;;2.27;;
22480;SDS011;11407;56.964;-2.212;2023-06-24T00:12:39;2.93;;;1.93;;
22480;SDS011;11407;56.964;-2.212;2023-06-24T00:15:06;3.03;;;2.30;;
22480;SDS011;11407;56.964;-2.212;2023-06-24T00:17:32;3.93;;;2.20;;
22480;SDS011;11407;56.964;-2.212;2023-06-24T00:19:57;2.90;;;2.30;;
22480;SDS011;11407;56.964;-2.212;2023-06-24T00:22:23;4.13;;;2.57;;
22480;SDS011;11407;56.964;-2.212;2023-06-24T00:24:48;2.70;;;2.43;;
22480;SDS011;11407;56.964;-2.212;2023-06-24T00:27:13;3.63;;;3.23;;
22480;SDS011;11407;56.964;-2.212;2023-06-24T00:29:38;4.40;;;3.07;;
22480;SDS011;11407;56.964;-2.212;2023-06-24T00:32:04;4.80;;;3.50;;
22480;SDS011;11407;56.964;-2.212;2023-06-24T00:34:29;4.30;;;3.30;;
22480;SDS011;11407;56.964;-2.212;2023-06-24T00:36:55;3.80;;;3.40;;
22480;SDS011;11407;56.964;-2.212;2023-06-24T00:39:20;4.27;;;3.37;;
22480;SDS011;11407;56.964;-2.212;2023-06-24T00:41:45;3.40;;;3.10;;
22480;SDS011;11407;56.964;-2.212;2023-06-24T00:44:11;5.10;;;3.70;;
22480;SDS011;11407;56.964;-2.212;2023-06-24T00:46:36;3.60;;;3.30;;
22480;SDS011;11407;56.964;-2.212;2023-06-24T00:49:02;4.17;;;3.70;;
22480;SDS011;11407;56.964;-2.212;2023-06-24T00:51:27;3.10;;;2.73;;
22480;SDS011;11407;56.964;-2.212;2023-06-24T00:53:58;4.47;;;2.90;;
22480;SDS011;11407;56.964;-2.212;2023-06-24T00:56:30;4.27;;;3.10;;
22480;SDS011;11407;56.964;-2.212;2023-06-24T00:58:57;3.67;;;3.10;;
22480;SDS011;11407;56.964;-2.212;2023-06-24T01:01:23;3.63;;;3.30;;
22480;SDS011;11407;56.964;-2.212;2023-06-24T01:03:48;5.27;;;3.70;;
22480;SDS011;11407;56.964;-2.212;2023-06-24T01:06:14;3.77;;;3.47;;
22480;SDS011;11407;56.964;-2.212;2023-06-24T01:08:40;4.97;;;4.57;;
22480;SDS011;11407;56.964;-2.212;2023-06-24T01:11:05;5.80;;;4.03;;
22480;SDS011;11407;56.964;-2.212;2023-06-24T01:13:30;4.87;;;4.37;;
22480;SDS011;11407;56.964;-2.212;2023-06-24T01:15:55;6.47;;;4.47;;
22480;SDS011;11407;56.964;-2.212;2023-06-24T01:18:24;5.20;;;4.70;;
22480;SDS011;11407;56.964;-2.212;2023-06-24T01:33:12;6.10;;;5.33;;
22480;SDS011;11407;56.964;-2.212;2023-06-24T01:35:38;8.17;;;5.23;;
22480;SDS011;11407;56.964;-2.212;2023-06-24T01:38:07;5.30;;;4.80;;
22480;SDS011;11407;56.964;-2.212;2023-06-24T01:40:43;4.20;;;3.80;;
22480;SDS011;11407;56.964;-2.212;2023-06-24T01:43:09;5.13;;;3.70;;
22480;SDS011;11407;56.964;-2.212;2023-06-24T01:45:42;3.67;;;3.37;;
22480;SDS011;11407;56.964;-2.212;2023-06-24T01:48:18;3.33;;;3.03;;
22480;SDS011;11407;56.964;-2.212;2023-06-24T01:51:29;3.00;;;2.73;;
22480;SDS011;11407;56.964;-2.212;2023-06-24T01:53:31;3.33;;;3.03;;
22480;SDS011;11407;56.964;-2.212;2023-06-24T01:55:57;3.13;;;2.77;;
22480;SDS011;11407;56.964;-2.212;2023-06-24T01:58:24;4.47;;;2.80;;
22480;SDS011;11407;56.964;-2.212;2023-06-24T02:00:49;3.43;;;2.50;;
22480;SDS011;11407;56.964;-2.212;2023-06-24T02:03:15;2.70;;;2.47;;
22480;SDS011;11407;56.964;-2.212;2023-06-24T02:05:40;3.33;;;3.00;;
22480;SDS011;11407;56.964;-2.212;2023-06-24T02:08:07;4.13;;;2.47;;
22480;SDS011;11407;56.964;-2.212;2023-06-24T02:10:33;3.27;;;2.40;;
22480;SDS011;11407;56.964;-2.212;2023-06-24T02:13:00;2.63;;;2.40;;
22480;SDS011;11407;56.964;-2.212;2023-06-24T02:15:25;2.90;;;2.47;;
22480;SDS011;11407;56.964;-2.212;2023-06-24T02:17:51;4.20;;;2.37;;
22480;SDS011;11407;56.964;-2.212;2023-06-24T02:20:17;3.00;;;2.23;;
22480;SDS011;11407;56.964;-2.212;2023-06-24T02:22:44;6.50;;;2.50;;
22480;SDS011;11407;56.964;-2.212;2023-06-24T02:25:10;3.10;;;2.50;;
22480;SDS011;11407;56.964;-2.212;2023-06-24T02:27:35;2.97;;;2.37;;
22480;SDS011;11407;56.964;-2.212;2023-06-24T02:30:02;3.17;;;2.67;;
22480;SDS011;11407;56.964;-2.212;2023-06-24T02:32:27;3.23;;;2.70;;
22480;SDS011;11407;56.964;-2.212;2023-06-24T02:34:53;3.27;;;2.97;;
22480;SDS011;11407;56.964;-2.212;2023-06-24T02:37:18;3.23;;;2.93;;
22480;SDS011;11407;56.964;-2.212;2023-06-24T02:39:43;4.07;;;3.27;;
22480;SDS011;11407;56.964;-2.212;2023-06-24T02:42:09;3.73;;;3.43;;
22480;SDS011;11407;56.964;-2.212;2023-06-24T02:44:34;4.87;;;3.80;;
22480;SDS011;11407;56.964;-2.212;2023-06-24T02:47:00;4.87;;;3.90;;
22480;SDS011;11407;56.964;-2.212;2023-06-24T02:49:25;5.07;;;4.13;;
22480;SDS011;11407;56.964;-2.212;2023-06-24T02:51:51;4.93;;;3.83;;
22480;SDS011;11407;56.964;-2.212;2023-06-24T02:54:17;4.63;;;3.87;;
22480;SDS011;11407;56.964;-2.212;2023-06-24T02:56:42;4.57;;;3.70;;
22480;SDS011;11407;56.964;-2.212;2023-06-24T02:59:09;4.30;;;3.90;;
22480;SDS011;11407;56.964;-2.212;2023-06-24T03:01:34;4.10;;;3.70;;
22480;SDS011;11407;56.964;-2.212;2023-06-24T03:04:04;4.43;;;4.00;;
22480;SDS011;11407;56.964;-2.212;2023-06-24T03:06:29;4.00;;;3.70;;
22480;SDS011;11407;56.964;-2.212;2023-06-24T03:08:56;3.60;;;3.30;;
22480;SDS011;11407;56.964;-2.212;2023-06-24T03:11:22;4.23;;;3.80;;
22480;SDS011;11407;56.964;-2.212;2023-06-24T03:13:47;4.53;;;4.10;;
22480;SDS011;11407;56.964;-2.212;2023-06-24T03:16:12;5.43;;;4.33;;
22480;SDS011;11407;56.964;-2.212;2023-06-24T03:18:40;10.03;;;5.63;;
22480;SDS011;11407;56.964;-2.212;2023-06-24T03:21:05;10.90;;;5.00;;
22480;SDS011;11407;56.964;-2.212;2023-06-24T03:23:31;8.03;;;4.87;;
22480;SDS011;11407;56.964;-2.212;2023-06-24T03:25:56;10.60;;;5.03;;
22480;SDS011;11407;56.964;-2.212;2023-06-24T03:28:22;9.03;;;4.63;;
22480;SDS011;11407;56.964;-2.212;2023-06-24T03:30:47;8.20;;;4.80;;
22480;SDS011;11407;56.964;-2.212;2023-06-24T03:33:12;8.70;;;4.90;;
22480;SDS011;11407;56.964;-2.212;2023-06-24T03:35:42;6.80;;;4.83;;
22480;SDS011;11407;56.964;-2.212;2023-06-24T03:38:07;12.63;;;4.90;;
22480;SDS011;11407;56.964;-2.212;2023-06-24T03:40:32;6.13;;;4.40;;
22480;SDS011;11407;56.964;-2.212;2023-06-24T03:42:58;7.80;;;4.63;;
22480;SDS011;11407;56.964;-2.212;2023-06-24T03:45:23;10.53;;;4.57;;
22480;SDS011;11407;56.964;-2.212;2023-06-24T03:47:48;6.97;;;3.90;;
22480;SDS011;11407;56.964;-2.212;2023-06-24T03:50:13;5.07;;;3.70;;
22480;SDS011;11407;56.964;-2.212;2023-06-24T03:52:39;3.40;;;3.10;;
22480;SDS011;11407;56.964;-2.212;2023-06-24T03:55:04;4.33;;;3.37;;
22480;SDS011;11407;56.964;-2.212;2023-06-24T03:57:30;3.57;;;3.00;;
22480;SDS011;11407;56.964;-2.212;2023-06-24T03:59:55;4.73;;;3.43;;
22480;SDS011;11407;56.964;-2.212;2023-06-24T04:02:21;3.70;;;3.30;;
22480;SDS011;11407;56.964;-2.212;2023-06-24T04:04:46;3.70;;;3.40;;
22480;SDS011;11407;56.964;-2.212;2023-06-24T04:07:15;6.03;;;3.37;;
22480;SDS011;11407;56.964;-2.212;2023-06-24T04:09:40;3.23;;;2.93;;
22480;SDS011;11407;56.964;-2.212;2023-06-24T04:12:05;5.33;;;3.37;;
22480;SDS011;11407;56.964;-2.212;2023-06-24T04:14:31;4.33;;;3.37;;
22480;SDS011;11407;56.964;-2.212;2023-06-24T04:16:56;3.63;;;3.33;;
22480;SDS011;11407;56.964;-2.212;2023-06-24T04:19:21;4.60;;;3.43;;
22480;SDS011;11407;56.964;-2.212;2023-06-24T04:21:46;3.67;;;3.30;;
22480;SDS011;11407;56.964;-2.212;2023-06-24T04:24:12;6.17;;;3.33;;
22480;SDS011;11407;56.964;-2.212;2023-06-24T04:26:37;3.33;;;3.00;;
22480;SDS011;11407;56.964;-2.212;2023-06-24T04:29:02;3.60;;;3.00;;
22480;SDS011;11407;56.964;-2.212;2023-06-24T04:31:27;4.60;;;3.30;;
22480;SDS011;11407;56.964;-2.212;2023-06-24T04:33:53;4.07;;;3.20;;
22480;SDS011;11407;56.964;-2.212;2023-06-24T04:36:18;3.43;;;3.13;;
22480;SDS011;11407;56.964;-2.212;2023-06-24T04:38:43;5.50;;;3.20;;
22480;SDS011;11407;56.964;-2.212;2023-06-24T04:41:09;3.80;;;3.40;;
22480;SDS011;11407;56.964;-2.212;2023-06-24T04:43:34;5.50;;;3.33;;
22480;SDS011;11407;56.964;-2.212;2023-06-24T04:46:00;4.57;;;3.47;;
22480;SDS011;11407;56.964;-2.212;2023-06-24T04:48:26;3.70;;;3.40;;
22480;SDS011;11407;56.964;-2.212;2023-06-24T04:50:51;5.80;;;3.30;;
22480;SDS011;11407;56.964;-2.212;2023-06-24T04:53:18;5.40;;;3.30;;
22480;SDS011;11407;56.964;-2.212;2023-06-24T04:55:43;5.67;;;3.40;;
22480;SDS011;11407;56.964;-2.212;2023-06-24T04:58:09;5.03;;;3.20;;
22480;SDS011;11407;56.964;-2.212;2023-06-24T05:00:34;4.37;;;3.23;;
22480;SDS011;11407;56.964;-2.212;2023-06-24T05:02:59;6.30;;;3.40;;
22480;SDS011;11407;56.964;-2.212;2023-06-24T05:05:24;4.00;;;3.20;;
22480;SDS011;11407;56.964;-2.212;2023-06-24T05:07:50;3.87;;;3.07;;
22480;SDS011;11407;56.964;-2.212;2023-06-24T05:10:15;3.77;;;3.00;;
22480;SDS011;11407;56.964;-2.212;2023-06-24T05:12:41;4.37;;;2.77;;
22480;SDS011;11407;56.964;-2.212;2023-06-24T05:15:06;3.90;;;3.03;;
22480;SDS011;11407;56.964;-2.212;2023-06-24T05:17:32;3.70;;;3.40;;
22480;SDS011;11407;56.964;-2.212;2023-06-24T05:19:57;4.27;;;3.10;;
22480;SDS011;11407;56.964;-2.212;2023-06-24T05:22:23;4.53;;;2.83;;
22480;SDS011;11407;56.964;-2.212;2023-06-24T05:24:48;3.00;;;2.70;;
22480;SDS011;11407;56.964;-2.212;2023-06-24T05:27:14;2.60;;;2.40;;
22480;SDS011;11407;56.964;-2.212;2023-06-24T05:29:39;3.20;;;2.80;;
22480;SDS011;11407;56.964;-2.212;2023-06-24T05:32:04;2.47;;;2.27;;
22480;SDS011;11407;56.964;-2.212;2023-06-24T05:34:30;3.53;;;2.60;;
22480;SDS011;11407;56.964;-2.212;2023-06-24T05:36:55;3.83;;;2.70;;
22480;SDS011;11407;56.964;-2.212;2023-06-24T05:39:21;3.63;;;2.80;;
22480;SDS011;11407;56.964;-2.212;2023-06-24T05:41:46;4.83;;;3.03;;
22480;SDS011;11407;56.964;-2.212;2023-06-24T05:44:13;5.00;;;2.87;;
22480;SDS011;11407;56.964;-2.212;2023-06-24T05:46:38;4.20;;;2.80;;
22480;SDS011;11407;56.964;-2.212;2023-06-24T05:49:04;3.00;;;2.33;;
22480;SDS011;11407;56.964;-2.212;2023-06-24T05:51:29;2.90;;;2.53;;
22480;SDS011;11407;56.964;-2.212;2023-06-24T05:53:54;4.27;;;2.67;;
22480;SDS011;11407;56.964;-2.212;2023-06-24T05:56:20;3.33;;;2.20;;
22480;SDS011;11407;56.964;-2.212;2023-06-24T05:58:45;3.40;;;2.63;;
22480;SDS011;11407;56.964;-2.212;2023-06-24T06:01:11;2.83;;;2.40;;
22480;SDS011;11407;56.964;-2.212;2023-06-24T06:03:36;4.57;;;2.87;;
22480;SDS011;11407;56.964;-2.212;2023-06-24T06:06:01;2.30;;;2.00;;
22480;SDS011;11407;56.964;-2.212;2023-06-24T06:08:27;3.07;;;2.30;;
22480;SDS011;11407;56.964;-2.212;2023-06-24T06:10:52;4.27;;;2.17;;
22480;SDS011;11407;56.964;-2.212;2023-06-24T06:13:17;2.40;;;2.20;;
22480;SDS011;11407;56.964;-2.212;2023-06-24T06:15:42;3.20;;;2.43;;
22480;SDS011;11407;56.964;-2.212;2023-06-24T06:18:08;3.13;;;2.30;;
22480;SDS011;11407;56.964;-2.212;2023-06-24T06:20:33;2.63;;;2.40;;
22480;SDS011;11407;56.964;-2.212;2023-06-24T06:22:58;2.50;;;2.27;;
22480;SDS011;11407;56.964;-2.212;2023-06-24T06:25:23;2.63;;;2.30;;
22480;SDS011;11407;56.964;-2.212;2023-06-24T06:27:49;2.77;;;2.57;;
22480;SDS011;11407;56.964;-2.212;2023-06-24T06:30:14;2.83;;;2.17;;
22480;SDS011;11407;56.964;-2.212;2023-06-24T06:32:39;2.57;;;2.30;;
22480;SDS011;11407;56.964;-2.212;2023-06-24T06:35:05;2.40;;;2.20;;
22480;SDS011;11407;56.964;-2.212;2023-06-24T06:37:30;4.10;;;2.47;;
22480;SDS011;11407;56.964;-2.212;2023-06-24T06:39:56;4.03;;;2.50;;
22480;SDS011;11407;56.964;-2.212;2023-06-24T06:42:21;6.00;;;2.50;;
22480;SDS011;11407;56.964;-2.212;2023-06-24T06:44:46;3.30;;;2.60;;
22480;SDS011;11407;56.964;-2.212;2023-06-24T06:47:11;3.20;;;2.90;;
22480;SDS011;11407;56.964;-2.212;2023-06-24T06:49:37;3.47;;;2.70;;
22480;SDS011;11407;56.964;-2.212;2023-06-24T06:52:02;4.33;;;2.80;;
22480;SDS011;11407;56.964;-2.212;2023-06-24T06:54:27;2.60;;;2.40;;
22480;SDS011;11407;56.964;-2.212;2023-06-24T06:56:53;4.13;;;2.90;;
22480;SDS011;11407;56.964;-2.212;2023-06-24T06:59:18;3.40;;;2.80;;
22480;SDS011;11407;56.964;-2.212;2023-06-24T07:01:44;3.17;;;2.80;;
22480;SDS011;11407;56.964;-2.212;2023-06-24T07:04:09;2.97;;;2.40;;
22480;SDS011;11407;56.964;-2.212;2023-06-24T07:06:34;6.57;;;2.60;;
22480;SDS011;11407;56.964;-2.212;2023-06-24T07:08:59;4.50;;;2.70;;
22480;SDS011;11407;56.964;-2.212;2023-06-24T07:11:25;3.57;;;2.27;;
22480;SDS011;11407;56.964;-2.212;2023-06-24T07:13:50;3.53;;;2.40;;
22480;SDS011;11407;56.964;-2.212;2023-06-24T07:16:16;3.33;;;2.13;;
22480;SDS011;11407;56.964;-2.212;2023-06-24T07:18:42;3.10;;;2.23;;
22480;SDS011;11407;56.964;-2.212;2023-06-24T07:21:07;3.23;;;2.17;;
22480;SDS011;11407;56.964;-2.212;2023-06-24T07:23:32;3.57;;;2.10;;
22480;SDS011;11407;56.964;-2.212;2023-06-24T07:25:57;2.80;;;2.33;;
22480;SDS011;11407;56.964;-2.212;2023-06-24T07:28:23;2.93;;;2.23;;
22480;SDS011;11407;56.964;-2.212;2023-06-24T07:30:48;2.13;;;1.97;;
22480;SDS011;11407;56.964;-2.212;2023-06-24T07:33:13;3.47;;;2.23;;
22480;SDS011;11407;56.964;-2.212;2023-06-24T07:35:39;2.97;;;2.20;;
22480;SDS011;11407;56.964;-2.212;2023-06-24T07:38:04;2.63;;;2.30;;
22480;SDS011;11407;56.964;-2.212;2023-06-24T07:40:29;3.27;;;2.10;;
22480;SDS011;11407;56.964;-2.212;2023-06-24T07:42:54;2.13;;;1.90;;
22480;SDS011;11407;56.964;-2.212;2023-06-24T07:45:20;1.73;;;1.63;;
22480;SDS011;11407;56.964;-2.212;2023-06-24T07:47:45;2.70;;;1.90;;
22480;SDS011;11407;56.964;-2.212;2023-06-24T07:50:10;1.87;;;1.70;;
22480;SDS011;11407;56.964;-2.212;2023-06-24T07:52:36;2.33;;;2.10;;
22480;SDS011;11407;56.964;-2.212;2023-06-24T07:55:01;2.30;;;2.03;;
22480;SDS011;11407;56.964;-2.212;2023-06-24T07:57:28;2.20;;;2.00;;
22480;SDS011;11407;56.964;-2.212;2023-06-24T07:59:53;2.20;;;2.00;;
22480;SDS011;11407;56.964;-2.212;2023-06-24T08:02:19;2.47;;;1.90;;
22480;SDS011;11407;56.964;-2.212;2023-06-24T08:04:44;2.40;;;2.13;;
22480;SDS011;11407;56.964;-2.212;2023-06-24T08:07:10;2.30;;;1.90;;
22480;SDS011;11407;56.964;-2.212;2023-06-24T08:09:35;2.60;;;1.97;;
22480;SDS011;11407;56.964;-2.212;2023-06-24T08:12:00;2.77;;;1.80;;
22480;SDS011;11407;56.964;-2.212;2023-06-24T08:14:25;3.17;;;2.10;;
22480;SDS011;11407;56.964;-2.212;2023-06-24T08:16:51;2.77;;;2.20;;
22480;SDS011;11407;56.964;-2.212;2023-06-24T08:19:16;3.60;;;2.27;;
22480;SDS011;11407;56.964;-2.212;2023-06-24T08:21:41;4.30;;;2.40;;
22480;SDS011;11407;56.964;-2.212;2023-06-24T08:24:06;2.23;;;2.13;;
22480;SDS011;11407;56.964;-2.212;2023-06-24T08:26:32;2.80;;;2.27;;
22480;SDS011;11407;56.964;-2.212;2023-06-24T08:28:57;2.53;;;2.20;;
22480;SDS011;11407;56.964;-2.212;2023-06-24T08:31:24;3.27;;;2.30;;
22480;SDS011;11407;56.964;-2.212;2023-06-24T08:33:51;2.63;;;2.10;;
22480;SDS011;11407;56.964;-2.212;2023-06-24T08:36:17;2.27;;;2.07;;
22480;SDS011;11407;56.964;-2.212;2023-06-24T08:38:42;2.20;;;2.00;;
22480;SDS011;11407;56.964;-2.212;2023-06-24T08:41:07;2.20;;;2.00;;
22480;SDS011;11407;56.964;-2.212;2023-06-24T08:43:33;2.00;;;1.80;;
22480;SDS011;11407;56.964;-2.212;2023-06-24T08:45:58;2.03;;;1.83;;
22480;SDS011;11407;56.964;-2.212;2023-06-24T08:48:23;2.53;;;1.90;;
22480;SDS011;11407;56.964;-2.212;2023-06-24T08:50:50;1.77;;;1.63;;
22480;SDS011;11407;56.964;-2.212;2023-06-24T08:53:15;1.90;;;1.80;;
22480;SDS011;11407;56.964;-2.212;2023-06-24T08:55:43;2.27;;;1.60;;
22480;SDS011;11407;56.964;-2.212;2023-06-24T08:58:08;2.00;;;1.80;;
22480;SDS011;11407;56.964;-2.212;2023-06-24T09:00:33;2.10;;;1.90;;
22480;SDS011;11407;56.964;-2.212;2023-06-24T09:02:59;2.27;;;2.00;;
22480;SDS011;11407;56.964;-2.212;2023-06-24T09:05:24;1.90;;;1.80;;
22480;SDS011;11407;56.964;-2.212;2023-06-24T09:07:49;2.33;;;1.90;;
22480;SDS011;11407;56.964;-2.212;2023-06-24T09:10:28;1.80;;;1.70;;
22480;SDS011;11407;56.964;-2.212;2023-06-24T09:12:54;2.03;;;1.90;;
22480;SDS011;11407;56.964;-2.212;2023-06-24T09:15:19;1.60;;;1.50;;
22480;SDS011;11407;56.964;-2.212;2023-06-24T09:17:45;1.60;;;1.50;;
22480;SDS011;11407;56.964;-2.212;2023-06-24T09:20:13;2.30;;;1.77;;
22480;SDS011;11407;56.964;-2.212;2023-06-24T09:22:39;1.77;;;1.67;;
22480;SDS011;11407;56.964;-2.212;2023-06-24T09:25:05;1.53;;;1.43;;
22480;SDS011;11407;56.964;-2.212;2023-06-24T09:27:31;2.17;;;1.97;;
22480;SDS011;11407;56.964;-2.212;2023-06-24T09:29:56;2.80;;;1.90;;
22480;SDS011;11407;56.964;-2.212;2023-06-24T09:32:21;1.73;;;1.63;;
22480;SDS011;11407;56.964;-2.212;2023-06-24T09:34:51;1.77;;;1.67;;
22480;SDS011;11407;56.964;-2.212;2023-06-24T09:37:22;2.17;;;1.67;;
22480;SDS011;11407;56.964;-2.212;2023-06-24T09:39:55;5.00;;;1.77;;
22480;SDS011;11407;56.964;-2.212;2023-06-24T09:42:21;2.17;;;1.80;;
22480;SDS011;11407;56.964;-2.212;2023-06-24T09:44:53;2.53;;;1.80;;
22480;SDS011;11407;56.964;-2.212;2023-06-24T09:47:19;1.87;;;1.70;;
22480;SDS011;11407;56.964;-2.212;2023-06-24T09:49:44;3.50;;;1.80;;
22480;SDS011;11407;56.964;-2.212;2023-06-24T09:52:09;1.60;;;1.50;;
22480;SDS011;11407;56.964;-2.212;2023-06-24T09:54:35;1.97;;;1.80;;
22480;SDS011;11407;56.964;-2.212;2023-06-24T09:57:01;1.70;;;1.60;;
22480;SDS011;11407;56.964;-2.212;2023-06-24T09:59:27;2.57;;;1.70;;
22480;SDS011;11407;56.964;-2.212;2023-06-24T10:01:53;1.88;;;1.70;;
22480;SDS011;11407;56.964;-2.212;2023-06-24T10:04:19;2.20;;;1.97;;
22480;SDS011;11407;56.964;-2.212;2023-06-24T10:06:45;2.27;;;2.10;;
22480;SDS011;11407;56.964;-2.212;2023-06-24T10:09:11;3.23;;;2.00;;
22480;SDS011;11407;56.964;-2.212;2023-06-24T10:11:38;2.40;;;2.20;;
22480;SDS011;11407;56.964;-2.212;2023-06-24T10:14:03;2.10;;;1.90;;
22480;SDS011;11407;56.964;-2.212;2023-06-24T10:16:29;2.40;;;2.20;;
22480;SDS011;11407;56.964;-2.212;2023-06-24T10:18:59;2.03;;;1.83;;
22480;SDS011;11407;56.964;-2.212;2023-06-24T10:21:25;2.20;;;2.00;;
22480;SDS011;11407;56.964;-2.212;2023-06-24T10:24:10;2.30;;;2.10;;
22480;SDS011;11407;56.964;-2.212;2023-06-24T10:26:35;2.07;;;1.97;;
22480;SDS011;11407;56.964;-2.212;2023-06-24T10:36:53;2.27;;;2.07;;
22480;SDS011;11407;56.964;-2.212;2023-06-24T10:44:47;2.60;;;2.27;;
22480;SDS011;11407;56.964;-2.212;2023-06-24T10:47:12;2.30;;;2.10;;
22480;SDS011;11407;56.964;-2.212;2023-06-24T10:49:37;2.60;;;2.23;;
22480;SDS011;11407;56.964;-2.212;2023-06-24T10:52:03;2.03;;;1.87;;
22480;SDS011;11407;56.964;-2.212;2023-06-24T10:54:28;2.40;;;2.20;;
22480;SDS011;11407;56.964;-2.212;2023-06-24T10:56:54;3.20;;;1.97;;
22480;SDS011;11407;56.964;-2.212;2023-06-24T10:59:20;2.40;;;2.10;;
22480;SDS011;11407;56.964;-2.212;2023-06-24T11:01:54;2.23;;;2.03;;
22480;SDS011;11407;56.964;-2.212;2023-06-24T11:04:19;2.33;;;2.03;;
22480;SDS011;11407;56.964;-2.212;2023-06-24T11:07:01;3.30;;;2.10;;
22480;SDS011;11407;56.964;-2.212;2023-06-24T11:09:26;2.50;;;2.10;;
22480;SDS011;11407;56.964;-2.212;2023-06-24T11:11:52;2.33;;;2.00;;
22480;SDS011;11407;56.964;-2.212;2023-06-24T11:14:17;3.13;;;2.10;;
22480;SDS011;11407;56.964;-2.212;2023-06-24T11:16:43;2.57;;;2.33;;
22480;SDS011;11407;56.964;-2.212;2023-06-24T11:19:10;2.20;;;2.00;;
22480;SDS011;11407;56.964;-2.212;2023-06-24T11:21:35;3.63;;;2.20;;
22480;SDS011;11407;56.964;-2.212;2023-06-24T11:24:02;2.03;;;1.90;;
22480;SDS011;11407;56.964;-2.212;2023-06-24T11:26:27;2.33;;;2.13;;
22480;SDS011;11407;56.964;-2.212;2023-06-24T11:28:53;1.90;;;1.80;;
22480;SDS011;11407;56.964;-2.212;2023-06-24T11:31:18;1.87;;;1.70;;
22480;SDS011;11407;56.964;-2.212;2023-06-24T11:33:47;2.30;;;2.10;;
22480;SDS011;11407;56.964;-2.212;2023-06-24T11:36:13;3.42;;;1.88;;
22480;SDS011;11407;56.964;-2.212;2023-06-24T11:38:41;2.17;;;1.70;;
22480;SDS011;11407;56.964;-2.212;2023-06-24T11:41:06;1.70;;;1.60;;
22480;SDS011;11407;56.964;-2.212;2023-06-24T11:43:32;2.10;;;1.70;;
22480;SDS011;11407;56.964;-2.212;2023-06-24T11:45:58;2.03;;;1.83;;
22480;SDS011;11407;56.964;-2.212;2023-06-24T11:48:27;6.35;;;1.60;;
22480;SDS011;11407;56.964;-2.212;2023-06-24T11:50:53;2.78;;;1.80;;
22480;SDS011;11407;56.964;-2.212;2023-06-24T11:53:22;1.73;;;1.60;;
22480;SDS011;11407;56.964;-2.212;2023-06-24T11:55:53;2.22;;;1.70;;
22480;SDS011;11407;56.964;-2.212;2023-06-24T11:58:20;2.97;;;1.67;;
22480;SDS011;11407;56.964;-2.212;2023-06-24T12:00:45;1.73;;;1.63;;
22480;SDS011;11407;56.964;-2.212;2023-06-24T12:03:12;2.63;;;1.50;;
22480;SDS011;11407;56.964;-2.212;2023-06-24T12:05:37;1.75;;;1.65;;
22480;SDS011;11407;56.964;-2.212;2023-06-24T12:08:05;1.50;;;1.40;;
22480;SDS011;11407;56.964;-2.212;2023-06-24T12:10:31;2.75;;;1.60;;
22480;SDS011;11407;56.964;-2.212;2023-06-24T12:13:00;1.95;;;1.60;;
22480;SDS011;11407;56.964;-2.212;2023-06-24T12:15:26;1.50;;;1.40;;
22480;SDS011;11407;56.964;-2.212;2023-06-24T12:17:51;2.97;;;1.55;;
22480;SDS011;11407;56.964;-2.212;2023-06-24T12:20:17;1.70;;;1.60;;
22480;SDS011;11407;56.964;-2.212;2023-06-24T12:22:43;1.50;;;1.40;;
22480;SDS011;11407;56.964;-2.212;2023-06-24T12:25:08;2.25;;;1.40;;
22480;SDS011;11407;56.964;-2.212;2023-06-24T12:27:34;3.05;;;1.60;;
22480;SDS011;11407;56.964;-2.212;2023-06-24T12:29:59;1.60;;;1.50;;
22480;SDS011;11407;56.964;-2.212;2023-06-24T12:32:25;2.90;;;1.50;;
22480;SDS011;11407;56.964;-2.212;2023-06-24T12:34:51;1.63;;;1.50;;
22480;SDS011;11407;56.964;-2.212;2023-06-24T12:37:16;1.90;;;1.65;;
22480;SDS011;11407;56.964;-2.212;2023-06-24T12:39:41;1.60;;;1.50;;
22480;SDS011;11407;56.964;-2.212;2023-06-24T12:42:07;1.73;;;1.52;;
22480;SDS011;11407;56.964;-2.212;2023-06-24T12:44:32;1.83;;;1.63;;
22480;SDS011;11407;56.964;-2.212;2023-06-24T12:46:57;1.52;;;1.40;;
22480;SDS011;11407;56.964;-2.212;2023-06-24T12:49:22;2.78;;;1.45;;
22480;SDS011;11407;56.964;-2.212;2023-06-24T12:51:48;1.65;;;1.55;;
22480;SDS011;11407;56.964;-2.212;2023-06-24T12:54:13;1.73;;;1.40;;
22480;SDS011;11407;56.964;-2.212;2023-06-24T12:56:38;1.55;;;1.38;;
22480;SDS011;11407;56.964;-2.212;2023-06-24T12:59:03;1.40;;;1.30;;
22480;SDS011;11407;56.964;-2.212;2023-06-24T13:01:30;1.70;;;1.27;;
22480;SDS011;11407;56.964;-2.212;2023-06-24T13:03:56;1.40;;;1.30;;
22480;SDS011;11407;56.964;-2.212;2023-06-24T13:06:21;2.35;;;1.40;;
22480;SDS011;11407;56.964;-2.212;2023-06-24T13:08:46;1.50;;;1.40;;
22480;SDS011;11407;56.964;-2.212;2023-06-24T13:11:11;2.13;;;1.30;;
22480;SDS011;11407;56.964;-2.212;2023-06-24T13:13:37;1.40;;;1.30;;
22480;SDS011;11407;56.964;-2.212;2023-06-24T13:16:02;5.95;;;2.50;;
22480;SDS011;11407;56.964;-2.212;2023-06-24T13:18:27;1.88;;;1.33;;
22480;SDS011;11407;56.964;-2.212;2023-06-24T13:20:52;3.58;;;2.05;;
22480;SDS011;11407;56.964;-2.212;2023-06-24T13:23:18;3.50;;;2.60;;
22480;SDS011;11407;56.964;-2.212;2023-06-24T13:25:43;40.03;;;8.70;;
22480;SDS011;11407;56.964;-2.212;2023-06-24T13:28:08;34.45;;;8.30;;
22480;SDS011;11407;56.964;-2.212;2023-06-24T13:30:33;14.48;;;3.60;;
22480;SDS011;11407;56.964;-2.212;2023-06-24T13:32:59;15.95;;;4.03;;
22480;SDS011;11407;56.964;-2.212;2023-06-24T13:35:24;12.82;;;4.30;;
22480;SDS011;11407;56.964;-2.212;2023-06-24T13:37:50;4.45;;;2.33;;
22480;SDS011;11407;56.964;-2.212;2023-06-24T13:40:15;4.10;;;2.75;;
22480;SDS011;11407;56.964;-2.212;2023-06-24T13:42:41;5.07;;;2.80;;
22480;SDS011;11407;56.964;-2.212;2023-06-24T13:45:06;3.28;;;2.35;;
22480;SDS011;11407;56.964;-2.212;2023-06-24T13:47:31;3.58;;;2.40;;
22480;SDS011;11407;56.964;-2.212;2023-06-24T13:49:57;3.60;;;2.40;;
22480;SDS011;11407;56.964;-2.212;2023-06-24T13:52:23;4.70;;;2.35;;
22480;SDS011;11407;56.964;-2.212;2023-06-24T13:54:49;3.33;;;2.25;;
22480;SDS011;11407;56.964;-2.212;2023-06-24T13:57:15;2.55;;;1.90;;
22480;SDS011;11407;56.964;-2.212;2023-06-24T13:59:41;2.25;;;1.77;;
22480;SDS011;11407;56.964;-2.212;2023-06-24T14:02:06;2.25;;;2.05;;
22480;SDS011;11407;56.964;-2.212;2023-06-24T14:04:34;3.25;;;2.28;;
22480;SDS011;11407;56.964;-2.212;2023-06-24T14:07:00;4.13;;;1.70;;
22480;SDS011;11407;56.964;-2.212;2023-06-24T14:09:27;1.38;;;1.20;;
22480;SDS011;11407;56.964;-2.212;2023-06-24T14:11:52;1.88;;;1.17;;
22480;SDS011;11407;56.964;-2.212;2023-06-24T14:14:17;2.47;;;1.20;;
22480;SDS011;11407;56.964;-2.212;2023-06-24T14:16:43;1.42;;;1.30;;
22480;SDS011;11407;56.964;-2.212;2023-06-24T14:19:08;1.50;;;1.30;;
22480;SDS011;11407;56.964;-2.212;2023-06-24T14:21:33;1.43;;;1.33;;
22480;SDS011;11407;56.964;-2.212;2023-06-24T14:24:00;2.20;;;1.50;;
22480;SDS011;11407;56.964;-2.212;2023-06-24T14:26:26;1.27;;;1.17;;
22480;SDS011;11407;56.964;-2.212;2023-06-24T14:28:51;1.53;;;1.37;;
22480;SDS011;11407;56.964;-2.212;2023-06-24T14:31:16;1.35;;;1.25;;
22480;SDS011;11407;56.964;-2.212;2023-06-24T14:33:41;1.60;;;1.30;;
22480;SDS011;11407;56.964;-2.212;2023-06-24T14:36:07;1.60;;;1.50;;
22480;SDS011;11407;56.964;-2.212;2023-06-24T14:38:32;2.77;;;1.23;;
22480;SDS011;11407;56.964;-2.212;2023-06-24T14:40:57;1.40;;;1.30;;
22480;SDS011;11407;56.964;-2.212;2023-06-24T14:43:22;1.40;;;1.30;;
22480;SDS011;11407;56.964;-2.212;2023-06-24T14:45:48;1.90;;;1.30;;
22480;SDS011;11407;56.964;-2.212;2023-06-24T14:48:13;1.50;;;1.30;;
22480;SDS011;11407;56.964;-2.212;2023-06-24T14:50:38;1.60;;;1.43;;